< Typhoon 196006 1960 Season Typhoon 196008 >
Typhoon 196007 (ROSE)
General InformationTrack Information on Google Maps || Disaster Info.ResourceGoogle EarthGE AnimationAtom FeedGeoJSON
Detalied Best Track (Time Zone = UTC)
Year Month Day Hour Lat. Long. Pressure (hPa) Wind (kt) Class Image Chart
1960 7 24 12 22.0 154.0 1006 0 2 -- Chart
1960 7 24 18 22.3 152.5 1004 0 2 -- Chart
1960 7 25 00 22.5 152.0 1004 0 2 -- Chart
1960 7 25 06 23.0 151.0 1004 0 2 -- Chart
1960 7 25 12 23.4 150.0 1000 0 9 -- Chart
1960 7 25 18 24.4 148.9 1000 0 9 -- Chart
1960 7 26 00 25.7 148.0 1000 0 9 -- Chart
1960 7 26 06 27.1 147.1 1000 0 9 -- Chart
1960 7 26 12 29.0 146.8 1000 0 9 -- Chart
1960 7 26 18 31.0 146.3 1000 0 9 -- Chart
1960 7 27 00 32.3 145.8 1000 0 9 -- Chart
1960 7 27 06 33.3 145.7 1000 0 9 -- Chart
1960 7 27 12 34.0 145.8 1000 0 9 -- Chart
1960 7 27 18 34.5 146.0 1000 0 9 -- Chart
1960 7 28 00 35.5 146.5 1000 0 9 -- Chart
1960 7 28 06 36.4 147.8 1000 0 9 -- Chart
1960 7 28 12 37.2 150.0 1000 0 9 -- Chart
1960 7 28 18 38.0 152.0 1000 0 9 -- Chart
1960 7 29 00 38.8 154.0 1000 0 9 -- Chart
1960 7 29 06 40.0 155.0 1000 0 6 -- Chart
1960 7 29 12 41.4 156.2 996 0 6 -- Chart
1960 7 29 18 43.0 157.0 992 0 6 -- Chart
1960 7 30 00 44.0 159.0 990 0 6 -- Chart
1960 7 30 06 45.0 159.5 990 0 6 -- Chart
1960 7 30 12 47.0 160.0 990 0 6 -- Chart
1960 7 30 18 49.0 163.0 996 0 6 -- Chart
1960 7 31 00 51.0 168.0 996 0 6 -- Chart
1960 7 31 06 52.0 175.0 996 0 6 -- Chart
1960 7 31 12 53.0 180.0 998 0 6 -- Chart
1960 7 31 18 55.0 187.0 994 0 6 -- Chart
Japan Meteorological Agency Best Track Data | Correction Date : 1993-09-13
< Typhoon 196006 1960 Season Typhoon 196008 >

Help